TAY5SL LFPG-ENGM
Flight info
| Callsign | TAY5SL |
|---|---|
| Flight time | 2h 5m |
| Altitude | 39000 |
| Route | NURMO DCT CMB DCT VEKIN DCT ADUTO DCT VICOT DCT AGISU DCT DOROR DCT AMSEV DCT PIPEX M609 RIPAM |
| Aircraft | B738/M-SDE2E3FGHIRWXY/LB1 |
Departure
| Time | 2026-05-06 13:57 |
|---|---|
| Airport | Charles de Gaulle International Airport (LFPG) |
Arrival
| Time | 2026-05-06 16:02 |
|---|---|
| Airport | Oslo-Gardermoen International Airport (ENGM) |
| Time | Latitude | Longitude | Altitude | Speed | Heading |
|---|---|---|---|---|---|
| 2026-05-06 13:17 | 49.01236 | 2.50253 | 352 ft | 0 kts | 265° |
| 2026-05-06 13:38 | 49.01237 | 2.50269 | 360 ft | 4 kts | 264° |
| 2026-05-06 13:38 | 49.01240 | 2.50310 | 359 ft | 4 kts | 265° |
| 2026-05-06 13:38 | 49.01240 | 2.50350 | 359 ft | 4 kts | 282° |
| 2026-05-06 13:39 | 49.01230 | 2.50388 | 359 ft | 4 kts | 317° |
| 2026-05-06 13:39 | 49.01213 | 2.50401 | 359 ft | 1 kts | 355° |
| 2026-05-06 13:39 | 49.01209 | 2.50402 | 356 ft | 2 kts | 355° |
| 2026-05-06 13:42 | 49.01212 | 2.50402 | 359 ft | 2 kts | 355° |
| 2026-05-06 13:42 | 49.01249 | 2.50397 | 360 ft | 8 kts | 355° |
| 2026-05-06 13:42 | 49.01316 | 2.50389 | 352 ft | 11 kts | 355° |
| 2026-05-06 13:43 | 49.01397 | 2.50386 | 355 ft | 12 kts | 18° |
| 2026-05-06 13:43 | 49.01480 | 2.50438 | 357 ft | 14 kts | 1° |
| 2026-05-06 13:43 | 49.01582 | 2.50437 | 357 ft | 15 kts | 20° |
| 2026-05-06 13:43 | 49.01618 | 2.50587 | 353 ft | 17 kts | 85° |
| 2026-05-06 13:44 | 49.01629 | 2.50780 | 353 ft | 20 kts | 85° |
| 2026-05-06 13:44 | 49.01641 | 2.50998 | 359 ft | 19 kts | 85° |
| 2026-05-06 13:44 | 49.01653 | 2.51211 | 353 ft | 21 kts | 86° |
| 2026-05-06 13:44 | 49.01665 | 2.51446 | 353 ft | 23 kts | 85° |
| 2026-05-06 13:45 | 49.01679 | 2.51701 | 356 ft | 25 kts | 85° |
| 2026-05-06 13:45 | 49.01708 | 2.52252 | 353 ft | 26 kts | 85° |
| 2026-05-06 13:45 | 49.01724 | 2.52545 | 355 ft | 27 kts | 85° |
| 2026-05-06 13:46 | 49.01739 | 2.52825 | 359 ft | 26 kts | 85° |
| 2026-05-06 13:46 | 49.01754 | 2.53109 | 356 ft | 28 kts | 86° |
| 2026-05-06 13:46 | 49.01769 | 2.53411 | 353 ft | 29 kts | 85° |
| 2026-05-06 13:46 | 49.01786 | 2.53712 | 353 ft | 28 kts | 85° |
| 2026-05-06 13:47 | 49.01803 | 2.53999 | 360 ft | 26 kts | 84° |
| 2026-05-06 13:47 | 49.01817 | 2.54267 | 362 ft | 25 kts | 85° |
| 2026-05-06 13:47 | 49.01831 | 2.54535 | 358 ft | 26 kts | 85° |
| 2026-05-06 13:47 | 49.01840 | 2.54790 | 358 ft | 13 kts | 107° |
| 2026-05-06 13:48 | 49.01763 | 2.54866 | 356 ft | 15 kts | 175° |
| 2026-05-06 13:48 | 49.01644 | 2.54881 | 354 ft | 19 kts | 175° |
| 2026-05-06 13:48 | 49.01498 | 2.54899 | 356 ft | 23 kts | 175° |
| 2026-05-06 13:48 | 49.01337 | 2.54942 | 358 ft | 25 kts | 164° |
| 2026-05-06 13:49 | 49.01164 | 2.55017 | 360 ft | 27 kts | 164° |
| 2026-05-06 13:49 | 49.00978 | 2.55098 | 358 ft | 29 kts | 164° |
| 2026-05-06 13:49 | 49.00785 | 2.55182 | 358 ft | 27 kts | 164° |
| 2026-05-06 13:49 | 49.00600 | 2.55262 | 356 ft | 29 kts | 164° |
| 2026-05-06 13:50 | 49.00427 | 2.55338 | 357 ft | 22 kts | 164° |
| 2026-05-06 13:50 | 49.00285 | 2.55399 | 356 ft | 22 kts | 164° |
| 2026-05-06 13:50 | 49.00132 | 2.55465 | 353 ft | 24 kts | 163° |
| 2026-05-06 13:50 | 48.99968 | 2.55537 | 356 ft | 26 kts | 164° |
| 2026-05-06 13:51 | 48.99841 | 2.55715 | 358 ft | 27 kts | 111° |
| 2026-05-06 13:51 | 48.99800 | 2.55978 | 360 ft | 25 kts | 92° |
| 2026-05-06 13:51 | 48.99812 | 2.56247 | 356 ft | 26 kts | 85° |
| 2026-05-06 13:51 | 48.99827 | 2.56530 | 353 ft | 27 kts | 85° |
| 2026-05-06 13:52 | 48.99842 | 2.56804 | 353 ft | 25 kts | 86° |
| 2026-05-06 13:52 | 48.99856 | 2.57062 | 353 ft | 25 kts | 86° |
| 2026-05-06 13:52 | 48.99871 | 2.57330 | 357 ft | 26 kts | 86° |
| 2026-05-06 13:52 | 48.99884 | 2.57591 | 353 ft | 24 kts | 85° |
| 2026-05-06 13:53 | 48.99897 | 2.57834 | 353 ft | 23 kts | 85° |
| 2026-05-06 13:53 | 48.99910 | 2.58077 | 353 ft | 23 kts | 85° |
| 2026-05-06 13:53 | 48.99924 | 2.58328 | 353 ft | 25 kts | 85° |
| 2026-05-06 13:53 | 48.99938 | 2.58585 | 353 ft | 23 kts | 85° |
| 2026-05-06 13:54 | 48.99951 | 2.58824 | 356 ft | 23 kts | 85° |
| 2026-05-06 13:54 | 48.99964 | 2.59066 | 353 ft | 22 kts | 85° |
| 2026-05-06 13:54 | 48.99977 | 2.59300 | 357 ft | 23 kts | 85° |
| 2026-05-06 13:54 | 48.99990 | 2.59543 | 361 ft | 24 kts | 85° |
| 2026-05-06 13:55 | 49.00002 | 2.59780 | 360 ft | 20 kts | 85° |
| 2026-05-06 13:55 | 49.00013 | 2.59990 | 353 ft | 15 kts | 88° |
| 2026-05-06 13:55 | 48.99974 | 2.60074 | 354 ft | 11 kts | 180° |
| 2026-05-06 13:55 | 48.99904 | 2.60004 | 356 ft | 14 kts | 229° |
| 2026-05-06 13:56 | 48.99844 | 2.59876 | 362 ft | 16 kts | 235° |
| 2026-05-06 13:56 | 48.99807 | 2.59709 | 352 ft | 18 kts | 265° |
| 2026-05-06 13:56 | 48.99785 | 2.59304 | 357 ft | 80 kts | 265° |
| 2026-05-06 13:56 | 48.99721 | 2.57973 | 377 ft | 164 kts | 269° |
| 2026-05-06 13:57 | 48.99599 | 2.55995 | 910 ft | 207 kts | 267° |
| 2026-05-06 13:57 | 48.99455 | 2.53645 | 1608 ft | 238 kts | 267° |
| 2026-05-06 13:57 | 48.99320 | 2.51156 | 3010 ft | 221 kts | 268° |
| 2026-05-06 13:57 | 48.99206 | 2.48946 | 4299 ft | 203 kts | 269° |
| 2026-05-06 13:58 | 48.99094 | 2.46739 | 4847 ft | 220 kts | 269° |
| 2026-05-06 13:58 | 48.98972 | 2.44301 | 5259 ft | 240 kts | 269° |
| 2026-05-06 13:58 | 48.98831 | 2.41643 | 5695 ft | 263 kts | 268° |
| 2026-05-06 13:58 | 48.98674 | 2.38796 | 6519 ft | 271 kts | 268° |
| 2026-05-06 13:59 | 48.98513 | 2.35931 | 7457 ft | 274 kts | 267° |
| 2026-05-06 13:59 | 48.98349 | 2.33006 | 8386 ft | 278 kts | 267° |
| 2026-05-06 13:59 | 48.98186 | 2.30085 | 9336 ft | 281 kts | 267° |
| 2026-05-06 13:59 | 48.98150 | 2.27080 | 10217 ft | 284 kts | 281° |
| 2026-05-06 14:00 | 48.98869 | 2.24244 | 10613 ft | 304 kts | 306° |
| 2026-05-06 14:00 | 49.00508 | 2.22067 | 10930 ft | 323 kts | 334° |
| 2026-05-06 14:00 | 49.02705 | 2.21365 | 11625 ft | 332 kts | 3° |
| 2026-05-06 14:00 | 49.05007 | 2.22312 | 12482 ft | 339 kts | 21° |
| 2026-05-06 14:01 | 49.07153 | 2.23752 | 13339 ft | 344 kts | 23° |
| 2026-05-06 14:01 | 49.09333 | 2.25309 | 14073 ft | 350 kts | 24° |
| 2026-05-06 14:01 | 49.11568 | 2.26912 | 14811 ft | 355 kts | 24° |
| 2026-05-06 14:01 | 49.13817 | 2.28503 | 15542 ft | 360 kts | 24° |
| 2026-05-06 14:02 | 49.16108 | 2.30098 | 16249 ft | 365 kts | 23° |
| 2026-05-06 14:02 | 49.18463 | 2.31716 | 16969 ft | 371 kts | 23° |
| 2026-05-06 14:02 | 49.20879 | 2.33361 | 17662 ft | 377 kts | 23° |
| 2026-05-06 14:02 | 49.23290 | 2.34995 | 18311 ft | 382 kts | 23° |
| 2026-05-06 14:03 | 49.25727 | 2.36643 | 18988 ft | 384 kts | 23° |
| 2026-05-06 14:03 | 49.28190 | 2.38308 | 19734 ft | 385 kts | 23° |
| 2026-05-06 14:03 | 49.30668 | 2.39983 | 20372 ft | 389 kts | 24° |
| 2026-05-06 14:03 | 49.33131 | 2.41649 | 21040 ft | 391 kts | 24° |
| 2026-05-06 14:04 | 49.35600 | 2.43321 | 21719 ft | 392 kts | 24° |
| 2026-05-06 14:04 | 49.38129 | 2.45037 | 22347 ft | 395 kts | 24° |
| 2026-05-06 14:04 | 49.40640 | 2.46741 | 22943 ft | 398 kts | 24° |
| 2026-05-06 14:04 | 49.43197 | 2.48480 | 23550 ft | 400 kts | 24° |
| 2026-05-06 14:05 | 49.44909 | 2.49644 | 23880 ft | 402 kts | 24° |
| 2026-05-06 14:05 | 49.48325 | 2.51971 | 24471 ft | 407 kts | 24° |
| 2026-05-06 14:05 | 49.50065 | 2.53157 | 24775 ft | 409 kts | 24° |
| 2026-05-06 14:05 | 49.52684 | 2.54945 | 25239 ft | 411 kts | 24° |
| 2026-05-06 14:06 | 49.55346 | 2.56765 | 25692 ft | 414 kts | 24° |
| 2026-05-06 14:06 | 49.58003 | 2.58583 | 26130 ft | 417 kts | 24° |
| 2026-05-06 14:06 | 49.60640 | 2.60389 | 26547 ft | 420 kts | 24° |
| 2026-05-06 14:06 | 49.63319 | 2.62227 | 26952 ft | 423 kts | 24° |
| 2026-05-06 14:07 | 49.66007 | 2.64074 | 27363 ft | 426 kts | 24° |
| 2026-05-06 14:07 | 49.68731 | 2.65946 | 27771 ft | 428 kts | 24° |
| 2026-05-06 14:07 | 49.71447 | 2.67816 | 28158 ft | 431 kts | 24° |
| 2026-05-06 14:07 | 49.74221 | 2.69728 | 28553 ft | 434 kts | 24° |
| 2026-05-06 14:08 | 49.77002 | 2.71647 | 28931 ft | 437 kts | 24° |
| 2026-05-06 14:08 | 49.79772 | 2.73561 | 29291 ft | 439 kts | 24° |
| 2026-05-06 14:08 | 49.82555 | 2.75494 | 29655 ft | 441 kts | 25° |
| 2026-05-06 14:08 | 49.85290 | 2.77758 | 30000 ft | 443 kts | 31° |
| 2026-05-06 14:09 | 49.87927 | 2.80316 | 30282 ft | 446 kts | 33° |
| 2026-05-06 14:09 | 49.90487 | 2.82939 | 30532 ft | 449 kts | 34° |
| 2026-05-06 14:09 | 49.93119 | 2.85651 | 30792 ft | 451 kts | 34° |
| 2026-05-06 14:09 | 49.95774 | 2.88352 | 31047 ft | 454 kts | 33° |
| 2026-05-06 14:10 | 49.98463 | 2.91045 | 31352 ft | 455 kts | 33° |
| 2026-05-06 14:10 | 50.01131 | 2.93689 | 31727 ft | 454 kts | 33° |
| 2026-05-06 14:10 | 50.03862 | 2.96381 | 32107 ft | 454 kts | 33° |
| 2026-05-06 14:10 | 50.06548 | 2.99027 | 32454 ft | 454 kts | 33° |
| 2026-05-06 14:11 | 50.09204 | 3.01646 | 32799 ft | 454 kts | 33° |
| 2026-05-06 14:11 | 50.11852 | 3.04264 | 33136 ft | 454 kts | 33° |
| 2026-05-06 14:11 | 50.14545 | 3.06932 | 33458 ft | 454 kts | 33° |
| 2026-05-06 14:11 | 50.17091 | 3.09457 | 33775 ft | 454 kts | 33° |
| 2026-05-06 14:12 | 50.19848 | 3.12196 | 34056 ft | 455 kts | 33° |
| 2026-05-06 14:12 | 50.22559 | 3.14870 | 34309 ft | 455 kts | 31° |
| 2026-05-06 14:12 | 50.25314 | 3.17126 | 34524 ft | 456 kts | 25° |
| 2026-05-06 14:12 | 50.28267 | 3.19170 | 34722 ft | 458 kts | 23° |
| 2026-05-06 14:13 | 50.31228 | 3.21138 | 34981 ft | 458 kts | 22° |
| 2026-05-06 14:13 | 50.34133 | 3.23094 | 35262 ft | 457 kts | 23° |
| 2026-05-06 14:13 | 50.37126 | 3.25167 | 35522 ft | 458 kts | 24° |
| 2026-05-06 14:13 | 50.39962 | 3.27163 | 35734 ft | 458 kts | 24° |
| 2026-05-06 14:14 | 50.42898 | 3.29337 | 35934 ft | 460 kts | 26° |
| 2026-05-06 14:14 | 50.45740 | 3.31590 | 36181 ft | 460 kts | 26° |
| 2026-05-06 14:14 | 50.48609 | 3.33884 | 36413 ft | 460 kts | 26° |
| 2026-05-06 14:14 | 50.51459 | 3.36138 | 36631 ft | 460 kts | 26° |
| 2026-05-06 14:15 | 50.54340 | 3.38304 | 36826 ft | 461 kts | 24° |
| 2026-05-06 14:15 | 50.57314 | 3.40394 | 37065 ft | 461 kts | 23° |
| 2026-05-06 14:15 | 50.60251 | 3.42404 | 37288 ft | 461 kts | 22° |
| 2026-05-06 14:15 | 50.63184 | 3.44403 | 37476 ft | 462 kts | 22° |
| 2026-05-06 14:16 | 50.66152 | 3.46440 | 37669 ft | 462 kts | 23° |
| 2026-05-06 14:16 | 50.69089 | 3.48475 | 37867 ft | 463 kts | 23° |
| 2026-05-06 14:16 | 50.71966 | 3.50484 | 38071 ft | 463 kts | 23° |
| 2026-05-06 14:16 | 50.75021 | 3.52628 | 38271 ft | 463 kts | 23° |
| 2026-05-06 14:17 | 50.77978 | 3.54712 | 38451 ft | 464 kts | 23° |
| 2026-05-06 14:17 | 50.80906 | 3.56780 | 38612 ft | 465 kts | 23° |
| 2026-05-06 14:17 | 50.83880 | 3.58884 | 38773 ft | 464 kts | 23° |
| 2026-05-06 14:17 | 50.86823 | 3.60968 | 38885 ft | 465 kts | 23° |
| 2026-05-06 14:18 | 50.92754 | 3.65175 | 38897 ft | 466 kts | 23° |
| 2026-05-06 14:18 | 50.98685 | 3.69393 | 38896 ft | 466 kts | 23° |
| 2026-05-06 14:19 | 51.04548 | 3.73575 | 38906 ft | 465 kts | 23° |
| 2026-05-06 14:19 | 51.10451 | 3.77796 | 38890 ft | 465 kts | 23° |
| 2026-05-06 14:20 | 51.16397 | 3.82060 | 38895 ft | 465 kts | 23° |
| 2026-05-06 14:20 | 51.22294 | 3.86301 | 38895 ft | 465 kts | 23° |
| 2026-05-06 14:21 | 51.28214 | 3.90572 | 38894 ft | 465 kts | 23° |
| 2026-05-06 14:21 | 51.34093 | 3.94824 | 38894 ft | 465 kts | 23° |
| 2026-05-06 14:22 | 51.39984 | 3.99098 | 38888 ft | 465 kts | 23° |
| 2026-05-06 14:22 | 51.45894 | 4.03396 | 38885 ft | 465 kts | 23° |
| 2026-05-06 14:23 | 51.51693 | 4.08191 | 38893 ft | 466 kts | 30° |
| 2026-05-06 14:23 | 51.57248 | 4.13577 | 38886 ft | 467 kts | 31° |
| 2026-05-06 14:24 | 51.61862 | 4.18123 | 38885 ft | 467 kts | 31° |
| 2026-05-06 14:24 | 51.67443 | 4.23572 | 38885 ft | 468 kts | 30° |
| 2026-05-06 14:25 | 51.73135 | 4.29091 | 38882 ft | 468 kts | 30° |
| 2026-05-06 14:25 | 51.78725 | 4.34512 | 38887 ft | 469 kts | 30° |
| 2026-05-06 14:26 | 51.84320 | 4.39953 | 38882 ft | 469 kts | 30° |
| 2026-05-06 14:26 | 51.89947 | 4.45443 | 38886 ft | 470 kts | 30° |
| 2026-05-06 14:27 | 51.95559 | 4.50936 | 38882 ft | 470 kts | 30° |
| 2026-05-06 14:27 | 52.01240 | 4.56514 | 38887 ft | 470 kts | 30° |
| 2026-05-06 14:28 | 52.06833 | 4.62022 | 38884 ft | 470 kts | 30° |
| 2026-05-06 14:28 | 52.12420 | 4.67539 | 38884 ft | 470 kts | 30° |
| 2026-05-06 14:29 | 52.18019 | 4.73086 | 38885 ft | 470 kts | 30° |
| 2026-05-06 14:29 | 52.23597 | 4.78628 | 38884 ft | 470 kts | 30° |
| 2026-05-06 14:30 | 52.29171 | 4.84182 | 38886 ft | 470 kts | 31° |
| 2026-05-06 14:30 | 52.34743 | 4.89752 | 38886 ft | 470 kts | 31° |
| 2026-05-06 14:31 | 52.40325 | 4.95348 | 38883 ft | 469 kts | 31° |
| 2026-05-06 14:31 | 52.45888 | 5.00941 | 38886 ft | 469 kts | 31° |
| 2026-05-06 14:32 | 52.51460 | 5.06561 | 38897 ft | 469 kts | 31° |
| 2026-05-06 14:32 | 52.57006 | 5.12171 | 38888 ft | 469 kts | 31° |
| 2026-05-06 14:33 | 52.62575 | 5.17822 | 38895 ft | 469 kts | 31° |
| 2026-05-06 14:33 | 52.68141 | 5.23485 | 38898 ft | 469 kts | 31° |
| 2026-05-06 14:34 | 52.73670 | 5.29129 | 38897 ft | 469 kts | 31° |
| 2026-05-06 14:34 | 52.79233 | 5.34825 | 38903 ft | 469 kts | 31° |
| 2026-05-06 14:35 | 52.84797 | 5.40540 | 38900 ft | 470 kts | 31° |
| 2026-05-06 14:35 | 52.90363 | 5.46273 | 38904 ft | 470 kts | 31° |
| 2026-05-06 14:36 | 52.95921 | 5.52017 | 38910 ft | 471 kts | 31° |
| 2026-05-06 14:36 | 53.01446 | 5.57743 | 38923 ft | 471 kts | 31° |
| 2026-05-06 14:37 | 53.07036 | 5.63556 | 38930 ft | 472 kts | 31° |
| 2026-05-06 14:37 | 53.12597 | 5.69354 | 38938 ft | 472 kts | 31° |
| 2026-05-06 14:38 | 53.18133 | 5.75146 | 38943 ft | 472 kts | 31° |
| 2026-05-06 14:38 | 53.23771 | 5.81062 | 38940 ft | 473 kts | 31° |
| 2026-05-06 14:39 | 53.29350 | 5.86935 | 38941 ft | 473 kts | 31° |
| 2026-05-06 14:39 | 53.34890 | 5.92786 | 38937 ft | 473 kts | 31° |
| 2026-05-06 14:40 | 53.40405 | 5.98628 | 38934 ft | 473 kts | 31° |
| 2026-05-06 14:40 | 53.45975 | 6.04546 | 38932 ft | 473 kts | 31° |
| 2026-05-06 14:41 | 53.51547 | 6.10487 | 38929 ft | 473 kts | 31° |
| 2026-05-06 14:41 | 53.57116 | 6.16441 | 38934 ft | 473 kts | 31° |
| 2026-05-06 14:42 | 53.62661 | 6.22390 | 38934 ft | 473 kts | 31° |
| 2026-05-06 14:42 | 53.68211 | 6.28363 | 38937 ft | 473 kts | 31° |
| 2026-05-06 14:43 | 53.73757 | 6.34351 | 38933 ft | 473 kts | 31° |
| 2026-05-06 14:43 | 53.79269 | 6.40321 | 38932 ft | 473 kts | 31° |
| 2026-05-06 14:44 | 53.84787 | 6.46314 | 38934 ft | 473 kts | 31° |
| 2026-05-06 14:45 | 53.93691 | 6.53421 | 38941 ft | 469 kts | 16° |
| 2026-05-06 14:45 | 53.99887 | 6.56824 | 38941 ft | 469 kts | 16° |
| 2026-05-06 14:46 | 54.06096 | 6.60271 | 38943 ft | 470 kts | 16° |
| 2026-05-06 14:46 | 54.12308 | 6.63811 | 38940 ft | 470 kts | 17° |
| 2026-05-06 14:47 | 54.18491 | 6.67379 | 38944 ft | 470 kts | 17° |
| 2026-05-06 14:47 | 54.23703 | 6.70400 | 38946 ft | 471 kts | 17° |
| 2026-05-06 14:48 | 54.29916 | 6.74009 | 38943 ft | 471 kts | 17° |
| 2026-05-06 14:48 | 54.36147 | 6.77637 | 38952 ft | 471 kts | 17° |
| 2026-05-06 14:49 | 54.42334 | 6.81250 | 38953 ft | 472 kts | 17° |
| 2026-05-06 14:49 | 54.48564 | 6.84901 | 38950 ft | 472 kts | 17° |
| 2026-05-06 14:50 | 54.54769 | 6.88548 | 38953 ft | 472 kts | 17° |
| 2026-05-06 14:50 | 54.61043 | 6.92249 | 38952 ft | 472 kts | 17° |
| 2026-05-06 14:51 | 54.67307 | 6.95955 | 38952 ft | 472 kts | 17° |
| 2026-05-06 14:51 | 54.73546 | 6.99658 | 38957 ft | 472 kts | 17° |
| 2026-05-06 14:52 | 54.79763 | 7.03361 | 38960 ft | 472 kts | 17° |
| 2026-05-06 14:52 | 54.85964 | 7.07066 | 38960 ft | 472 kts | 17° |
| 2026-05-06 14:53 | 54.92230 | 7.10823 | 38962 ft | 472 kts | 17° |
| 2026-05-06 14:53 | 54.98442 | 7.14558 | 38963 ft | 472 kts | 17° |
| 2026-05-06 14:54 | 55.04661 | 7.18231 | 38961 ft | 472 kts | 16° |
| 2026-05-06 14:54 | 55.10933 | 7.21809 | 38963 ft | 472 kts | 15° |
| 2026-05-06 14:55 | 55.17183 | 7.25378 | 38965 ft | 472 kts | 15° |
| 2026-05-06 14:55 | 55.23385 | 7.28951 | 38970 ft | 472 kts | 15° |
| 2026-05-06 14:56 | 55.29576 | 7.32540 | 38967 ft | 472 kts | 15° |
| 2026-05-06 14:56 | 55.35883 | 7.36212 | 38967 ft | 472 kts | 15° |
| 2026-05-06 14:57 | 55.42098 | 7.39841 | 38967 ft | 472 kts | 15° |
| 2026-05-06 14:57 | 55.48353 | 7.43505 | 38970 ft | 472 kts | 15° |
| 2026-05-06 14:58 | 55.54552 | 7.47149 | 38970 ft | 473 kts | 15° |
| 2026-05-06 14:58 | 55.60822 | 7.50846 | 38971 ft | 473 kts | 15° |
| 2026-05-06 14:59 | 55.67027 | 7.54517 | 38971 ft | 473 kts | 15° |
| 2026-05-06 14:59 | 55.73291 | 7.58237 | 38969 ft | 474 kts | 15° |
| 2026-05-06 15:00 | 55.79552 | 7.61966 | 38968 ft | 474 kts | 15° |
| 2026-05-06 15:00 | 55.85796 | 7.65699 | 38972 ft | 474 kts | 15° |
| 2026-05-06 15:01 | 55.92022 | 7.69433 | 38978 ft | 474 kts | 15° |
| 2026-05-06 15:01 | 55.98297 | 7.73209 | 38977 ft | 474 kts | 15° |
| 2026-05-06 15:02 | 56.04548 | 7.76984 | 38975 ft | 474 kts | 15° |
| 2026-05-06 15:02 | 56.10792 | 7.80768 | 38975 ft | 474 kts | 15° |
| 2026-05-06 15:03 | 56.17040 | 7.84567 | 38978 ft | 475 kts | 15° |
| 2026-05-06 15:03 | 56.23304 | 7.88389 | 38975 ft | 475 kts | 15° |
| 2026-05-06 15:04 | 56.29567 | 7.92223 | 38982 ft | 475 kts | 15° |
| 2026-05-06 15:04 | 56.35830 | 7.96071 | 38981 ft | 475 kts | 16° |
| 2026-05-06 15:05 | 56.42111 | 7.99943 | 38978 ft | 475 kts | 16° |
| 2026-05-06 15:05 | 56.48368 | 8.03815 | 38976 ft | 475 kts | 16° |
| 2026-05-06 15:06 | 56.54636 | 8.07706 | 38984 ft | 475 kts | 16° |
| 2026-05-06 15:06 | 56.60861 | 8.11584 | 38981 ft | 475 kts | 16° |
| 2026-05-06 15:07 | 56.67033 | 8.15443 | 38986 ft | 475 kts | 16° |
| 2026-05-06 15:07 | 56.73295 | 8.19371 | 38988 ft | 476 kts | 16° |
| 2026-05-06 15:08 | 56.79540 | 8.23303 | 38983 ft | 476 kts | 16° |
| 2026-05-06 15:08 | 56.85803 | 8.27259 | 38994 ft | 476 kts | 16° |
| 2026-05-06 15:09 | 56.92083 | 8.31242 | 38981 ft | 477 kts | 16° |
| 2026-05-06 15:09 | 56.98366 | 8.35240 | 38988 ft | 477 kts | 16° |
| 2026-05-06 15:10 | 57.04631 | 8.39241 | 38988 ft | 477 kts | 16° |
| 2026-05-06 15:10 | 57.10909 | 8.43265 | 38989 ft | 477 kts | 16° |
| 2026-05-06 15:11 | 57.17187 | 8.47303 | 38986 ft | 478 kts | 16° |
| 2026-05-06 15:11 | 57.23458 | 8.51351 | 38988 ft | 478 kts | 15° |
| 2026-05-06 15:12 | 57.29649 | 8.55362 | 38988 ft | 478 kts | 16° |
| 2026-05-06 15:12 | 57.35903 | 8.59429 | 38990 ft | 478 kts | 15° |
| 2026-05-06 15:13 | 57.42196 | 8.63535 | 38984 ft | 478 kts | 16° |
| 2026-05-06 15:13 | 57.48457 | 8.67636 | 38985 ft | 478 kts | 16° |
| 2026-05-06 15:14 | 57.53709 | 8.71088 | 38984 ft | 478 kts | 16° |
| 2026-05-06 15:14 | 57.59987 | 8.75227 | 38987 ft | 478 kts | 16° |
| 2026-05-06 15:15 | 57.66274 | 8.79350 | 38985 ft | 477 kts | 13° |
| 2026-05-06 15:15 | 57.72735 | 8.81558 | 38991 ft | 469 kts | 1° |
| 2026-05-06 15:16 | 57.79263 | 8.82721 | 38982 ft | 469 kts | 0° |
| 2026-05-06 15:16 | 57.85816 | 8.83894 | 38979 ft | 470 kts | 1° |
| 2026-05-06 15:17 | 57.92331 | 8.85157 | 38984 ft | 470 kts | 1° |
| 2026-05-06 15:17 | 57.98837 | 8.86466 | 38981 ft | 471 kts | 1° |
| 2026-05-06 15:17 | 58.02094 | 8.87127 | 38839 ft | 474 kts | 1° |
| 2026-05-06 15:18 | 58.05378 | 8.87791 | 38290 ft | 477 kts | 1° |
| 2026-05-06 15:18 | 58.08705 | 8.88467 | 37665 ft | 475 kts | 1° |
| 2026-05-06 15:18 | 58.11970 | 8.89133 | 37082 ft | 474 kts | 1° |
| 2026-05-06 15:18 | 58.15234 | 8.89800 | 36492 ft | 473 kts | 1° |
| 2026-05-06 15:19 | 58.18517 | 8.90471 | 36037 ft | 469 kts | 0° |
| 2026-05-06 15:19 | 58.21728 | 8.91129 | 35611 ft | 466 kts | 0° |
| 2026-05-06 15:19 | 58.24958 | 8.91792 | 35168 ft | 463 kts | 0° |
| 2026-05-06 15:19 | 58.28124 | 8.92441 | 34716 ft | 460 kts | 360° |
| 2026-05-06 15:20 | 58.31326 | 8.93097 | 34274 ft | 458 kts | 359° |
| 2026-05-06 15:20 | 58.34457 | 8.93740 | 33809 ft | 456 kts | 359° |
| 2026-05-06 15:20 | 58.37636 | 8.94394 | 33318 ft | 453 kts | 359° |
| 2026-05-06 15:20 | 58.40747 | 8.95036 | 32873 ft | 450 kts | 359° |
| 2026-05-06 15:21 | 58.43824 | 8.95673 | 32442 ft | 446 kts | 359° |
| 2026-05-06 15:21 | 58.46927 | 8.96316 | 32015 ft | 443 kts | 359° |
| 2026-05-06 15:21 | 58.49959 | 8.96945 | 31604 ft | 440 kts | 359° |
| 2026-05-06 15:21 | 58.53013 | 8.97579 | 31186 ft | 436 kts | 359° |
| 2026-05-06 15:22 | 58.56016 | 8.98203 | 30786 ft | 434 kts | 359° |
| 2026-05-06 15:22 | 58.58979 | 8.98820 | 30382 ft | 431 kts | 359° |
| 2026-05-06 15:22 | 58.61975 | 8.99445 | 29978 ft | 429 kts | 359° |
| 2026-05-06 15:22 | 58.64922 | 9.00061 | 29497 ft | 426 kts | 359° |
| 2026-05-06 15:23 | 58.67839 | 9.00672 | 29049 ft | 422 kts | 359° |
| 2026-05-06 15:23 | 58.70770 | 9.01287 | 28611 ft | 418 kts | 359° |
| 2026-05-06 15:23 | 58.73620 | 9.01886 | 28191 ft | 415 kts | 359° |
| 2026-05-06 15:23 | 58.76495 | 9.02491 | 27769 ft | 411 kts | 359° |
| 2026-05-06 15:24 | 58.79300 | 9.03083 | 27367 ft | 407 kts | 359° |
| 2026-05-06 15:24 | 58.82109 | 9.03806 | 26940 ft | 409 kts | 5° |
| 2026-05-06 15:24 | 58.84795 | 9.05393 | 26527 ft | 414 kts | 17° |
| 2026-05-06 15:24 | 58.87432 | 9.07967 | 25915 ft | 419 kts | 29° |
| 2026-05-06 15:25 | 58.89847 | 9.11331 | 25495 ft | 418 kts | 33° |
| 2026-05-06 15:25 | 58.92140 | 9.14718 | 25081 ft | 416 kts | 34° |
| 2026-05-06 15:25 | 58.94446 | 9.18169 | 24678 ft | 414 kts | 33° |
| 2026-05-06 15:25 | 58.96704 | 9.21541 | 24271 ft | 411 kts | 33° |
| 2026-05-06 15:26 | 58.98985 | 9.24926 | 23880 ft | 408 kts | 33° |
| 2026-05-06 15:26 | 59.01182 | 9.28168 | 23487 ft | 406 kts | 33° |
| 2026-05-06 15:26 | 59.03490 | 9.31562 | 23008 ft | 404 kts | 33° |
| 2026-05-06 15:26 | 59.05715 | 9.34833 | 22585 ft | 401 kts | 33° |
| 2026-05-06 15:27 | 59.07952 | 9.38123 | 22188 ft | 397 kts | 33° |
| 2026-05-06 15:27 | 59.10125 | 9.41324 | 21793 ft | 393 kts | 33° |
| 2026-05-06 15:27 | 59.12306 | 9.44541 | 21421 ft | 389 kts | 33° |
| 2026-05-06 15:27 | 59.14444 | 9.47700 | 21018 ft | 386 kts | 33° |
| 2026-05-06 15:28 | 59.16566 | 9.50841 | 20650 ft | 382 kts | 33° |
| 2026-05-06 15:28 | 59.18683 | 9.53978 | 20274 ft | 379 kts | 33° |
| 2026-05-06 15:28 | 59.20764 | 9.57068 | 19909 ft | 376 kts | 33° |
| 2026-05-06 15:28 | 59.22854 | 9.60176 | 19537 ft | 373 kts | 33° |
| 2026-05-06 15:29 | 59.24896 | 9.63216 | 19181 ft | 370 kts | 33° |
| 2026-05-06 15:29 | 59.26918 | 9.66232 | 18807 ft | 368 kts | 33° |
| 2026-05-06 15:29 | 59.28971 | 9.69298 | 18450 ft | 365 kts | 33° |
| 2026-05-06 15:29 | 59.30966 | 9.72283 | 18076 ft | 362 kts | 33° |
| 2026-05-06 15:30 | 59.32973 | 9.75295 | 17851 ft | 354 kts | 33° |
| 2026-05-06 15:30 | 59.34882 | 9.78265 | 17604 ft | 348 kts | 34° |
| 2026-05-06 15:30 | 59.36765 | 9.81264 | 17282 ft | 344 kts | 35° |
| 2026-05-06 15:30 | 59.38592 | 9.84192 | 16928 ft | 341 kts | 34° |
| 2026-05-06 15:31 | 59.40449 | 9.87170 | 16575 ft | 339 kts | 34° |
| 2026-05-06 15:31 | 59.42259 | 9.90070 | 16210 ft | 337 kts | 34° |
| 2026-05-06 15:31 | 59.44075 | 9.92978 | 15879 ft | 335 kts | 35° |
| 2026-05-06 15:32 | 59.47660 | 9.98729 | 15200 ft | 332 kts | 36° |
| 2026-05-06 15:32 | 59.49393 | 10.01776 | 14857 ft | 331 kts | 39° |
| 2026-05-06 15:32 | 59.51060 | 10.04850 | 14504 ft | 330 kts | 39° |
| 2026-05-06 15:32 | 59.52732 | 10.07966 | 14176 ft | 328 kts | 39° |
| 2026-05-06 15:33 | 59.54366 | 10.11013 | 13915 ft | 325 kts | 39° |
| 2026-05-06 15:33 | 59.56217 | 10.13456 | 13622 ft | 313 kts | 13° |
| 2026-05-06 15:33 | 59.58268 | 10.13877 | 13505 ft | 295 kts | 348° |
| 2026-05-06 15:33 | 59.60307 | 10.13492 | 13236 ft | 296 kts | 349° |
| 2026-05-06 15:34 | 59.62386 | 10.13163 | 12990 ft | 297 kts | 350° |
| 2026-05-06 15:34 | 59.64465 | 10.12867 | 12948 ft | 302 kts | 351° |
| 2026-05-06 15:34 | 59.66573 | 10.12586 | 12921 ft | 300 kts | 351° |
| 2026-05-06 15:34 | 59.68630 | 10.12323 | 12914 ft | 296 kts | 351° |
| 2026-05-06 15:35 | 59.70683 | 10.12063 | 12917 ft | 296 kts | 351° |
| 2026-05-06 15:35 | 59.72753 | 10.11802 | 12926 ft | 297 kts | 351° |
| 2026-05-06 15:35 | 59.74835 | 10.11541 | 12930 ft | 298 kts | 351° |
| 2026-05-06 15:35 | 59.76901 | 10.11283 | 12931 ft | 299 kts | 351° |
| 2026-05-06 15:36 | 59.78970 | 10.11024 | 12924 ft | 300 kts | 351° |
| 2026-05-06 15:36 | 59.81068 | 10.10763 | 12930 ft | 300 kts | 351° |
| 2026-05-06 15:36 | 59.83134 | 10.10504 | 12916 ft | 300 kts | 351° |
| 2026-05-06 15:36 | 59.85233 | 10.10243 | 12921 ft | 299 kts | 351° |
| 2026-05-06 15:37 | 59.87283 | 10.09987 | 12923 ft | 298 kts | 351° |
| 2026-05-06 15:37 | 59.89345 | 10.09729 | 12911 ft | 297 kts | 351° |
| 2026-05-06 15:37 | 59.91424 | 10.09469 | 12920 ft | 297 kts | 351° |
| 2026-05-06 15:37 | 59.93473 | 10.09250 | 12911 ft | 298 kts | 355° |
| 2026-05-06 15:38 | 59.95530 | 10.09946 | 12927 ft | 304 kts | 9° |
| 2026-05-06 15:38 | 59.97573 | 10.11131 | 12922 ft | 306 kts | 12° |
| 2026-05-06 15:38 | 59.99623 | 10.12386 | 12921 ft | 307 kts | 12° |
| 2026-05-06 15:38 | 60.01657 | 10.13618 | 12916 ft | 307 kts | 12° |
| 2026-05-06 15:39 | 60.03708 | 10.14836 | 12917 ft | 307 kts | 11° |
| 2026-05-06 15:39 | 60.05763 | 10.16041 | 12914 ft | 307 kts | 11° |
| 2026-05-06 15:39 | 60.07834 | 10.17245 | 12876 ft | 307 kts | 11° |
| 2026-05-06 15:39 | 60.09940 | 10.18461 | 12171 ft | 319 kts | 12° |
| 2026-05-06 15:40 | 60.12057 | 10.19688 | 11899 ft | 313 kts | 12° |
| 2026-05-06 15:40 | 60.14126 | 10.20891 | 11599 ft | 310 kts | 13° |
| 2026-05-06 15:40 | 60.16196 | 10.22091 | 11277 ft | 307 kts | 13° |
| 2026-05-06 15:40 | 60.18235 | 10.23273 | 10955 ft | 304 kts | 13° |
| 2026-05-06 15:41 | 60.20251 | 10.24444 | 10604 ft | 302 kts | 14° |
| 2026-05-06 15:41 | 60.22275 | 10.25620 | 10281 ft | 300 kts | 14° |
| 2026-05-06 15:41 | 60.24256 | 10.26773 | 10039 ft | 295 kts | 14° |
| 2026-05-06 15:41 | 60.26197 | 10.27906 | 9996 ft | 283 kts | 14° |
| 2026-05-06 15:42 | 60.28061 | 10.28993 | 9712 ft | 281 kts | 14° |
| 2026-05-06 15:42 | 60.29942 | 10.30093 | 9397 ft | 279 kts | 14° |
| 2026-05-06 15:42 | 60.31805 | 10.31181 | 9088 ft | 278 kts | 14° |
| 2026-05-06 15:42 | 60.33615 | 10.32354 | 8998 ft | 275 kts | 20° |
| 2026-05-06 15:43 | 60.35385 | 10.33918 | 9001 ft | 276 kts | 23° |
| 2026-05-06 15:43 | 60.37095 | 10.35533 | 8993 ft | 277 kts | 23° |
| 2026-05-06 15:43 | 60.38259 | 10.36632 | 9000 ft | 275 kts | 23° |
| 2026-05-06 15:43 | 60.39963 | 10.38218 | 8986 ft | 272 kts | 23° |
| 2026-05-06 15:44 | 60.41699 | 10.39811 | 8988 ft | 273 kts | 22° |
| 2026-05-06 15:44 | 60.43424 | 10.41383 | 8991 ft | 271 kts | 22° |
| 2026-05-06 15:44 | 60.45137 | 10.42943 | 8986 ft | 265 kts | 22° |
| 2026-05-06 15:44 | 60.46790 | 10.44367 | 8964 ft | 253 kts | 15° |
| 2026-05-06 15:45 | 60.48465 | 10.45092 | 8992 ft | 243 kts | 7° |
| 2026-05-06 15:45 | 60.50133 | 10.45598 | 9015 ft | 238 kts | 6° |
| 2026-05-06 15:45 | 60.51805 | 10.46115 | 8999 ft | 245 kts | 6° |
| 2026-05-06 15:45 | 60.53501 | 10.46667 | 8992 ft | 250 kts | 7° |
| 2026-05-06 15:46 | 60.55213 | 10.47254 | 8994 ft | 250 kts | 8° |
| 2026-05-06 15:46 | 60.56926 | 10.47874 | 8988 ft | 249 kts | 10° |
| 2026-05-06 15:46 | 60.58521 | 10.49209 | 8998 ft | 249 kts | 28° |
| 2026-05-06 15:46 | 60.60012 | 10.51010 | 8987 ft | 249 kts | 28° |
| 2026-05-06 15:47 | 60.61519 | 10.52813 | 8986 ft | 249 kts | 28° |
| 2026-05-06 15:47 | 60.63008 | 10.54570 | 8980 ft | 249 kts | 28° |
| 2026-05-06 15:47 | 60.64518 | 10.56338 | 8993 ft | 249 kts | 28° |
| 2026-05-06 15:47 | 60.66013 | 10.58082 | 8988 ft | 250 kts | 28° |
| 2026-05-06 15:48 | 60.67426 | 10.60182 | 8988 ft | 252 kts | 44° |
| 2026-05-06 15:48 | 60.68579 | 10.62889 | 8995 ft | 254 kts | 50° |
| 2026-05-06 15:48 | 60.69697 | 10.65688 | 8992 ft | 255 kts | 50° |
| 2026-05-06 15:48 | 60.70833 | 10.68495 | 8993 ft | 255 kts | 49° |
| 2026-05-06 15:49 | 60.71982 | 10.71286 | 8988 ft | 256 kts | 49° |
| 2026-05-06 15:49 | 60.73124 | 10.74039 | 8985 ft | 255 kts | 49° |
| 2026-05-06 15:49 | 60.74184 | 10.76905 | 8978 ft | 255 kts | 61° |
| 2026-05-06 15:49 | 60.74916 | 10.80205 | 8992 ft | 254 kts | 67° |
| 2026-05-06 15:50 | 60.75573 | 10.83582 | 8987 ft | 254 kts | 68° |
| 2026-05-06 15:50 | 60.75964 | 10.87066 | 8984 ft | 254 kts | 92° |
| 2026-05-06 15:50 | 60.75516 | 10.90514 | 8978 ft | 251 kts | 121° |
| 2026-05-06 15:50 | 60.74332 | 10.93078 | 8738 ft | 252 kts | 150° |
| 2026-05-06 15:51 | 60.72725 | 10.94419 | 8524 ft | 248 kts | 166° |
| 2026-05-06 15:51 | 60.71073 | 10.95328 | 8303 ft | 247 kts | 168° |
| 2026-05-06 15:51 | 60.69405 | 10.96200 | 8066 ft | 245 kts | 168° |
| 2026-05-06 15:51 | 60.67773 | 10.97054 | 7859 ft | 244 kts | 167° |
| 2026-05-06 15:52 | 60.66121 | 10.97928 | 7640 ft | 242 kts | 167° |
| 2026-05-06 15:52 | 60.64509 | 10.98788 | 7436 ft | 241 kts | 167° |
| 2026-05-06 15:52 | 60.62872 | 10.99665 | 7235 ft | 241 kts | 167° |
| 2026-05-06 15:52 | 60.61269 | 11.00529 | 7019 ft | 239 kts | 167° |
| 2026-05-06 15:53 | 60.59653 | 11.01403 | 6826 ft | 238 kts | 167° |
| 2026-05-06 15:53 | 60.58061 | 11.02259 | 6610 ft | 238 kts | 167° |
| 2026-05-06 15:53 | 60.56488 | 11.03112 | 6415 ft | 226 kts | 167° |
| 2026-05-06 15:53 | 60.55018 | 11.03909 | 6178 ft | 213 kts | 167° |
| 2026-05-06 15:54 | 60.53627 | 11.04662 | 6066 ft | 206 kts | 167° |
| 2026-05-06 15:54 | 60.52244 | 11.05409 | 5833 ft | 201 kts | 167° |
| 2026-05-06 15:54 | 60.50902 | 11.06132 | 5705 ft | 198 kts | 167° |
| 2026-05-06 15:54 | 60.49574 | 11.06856 | 5527 ft | 198 kts | 166° |
| 2026-05-06 15:55 | 60.48265 | 11.07583 | 5351 ft | 195 kts | 168° |
| 2026-05-06 15:55 | 60.46945 | 11.08287 | 5190 ft | 194 kts | 165° |
| 2026-05-06 15:55 | 60.45842 | 11.09790 | 5011 ft | 194 kts | 134° |
| 2026-05-06 15:55 | 60.44908 | 11.11749 | 4865 ft | 195 kts | 136° |
| 2026-05-06 15:56 | 60.43928 | 11.13690 | 4845 ft | 196 kts | 137° |
| 2026-05-06 15:56 | 60.42965 | 11.15581 | 4849 ft | 193 kts | 137° |
| 2026-05-06 15:56 | 60.41985 | 11.17495 | 4844 ft | 195 kts | 137° |
| 2026-05-06 15:56 | 60.40895 | 11.19095 | 4601 ft | 204 kts | 167° |
| 2026-05-06 15:57 | 60.39530 | 11.19030 | 4454 ft | 194 kts | 192° |
| 2026-05-06 15:57 | 60.38214 | 11.18529 | 4175 ft | 191 kts | 194° |
| 2026-05-06 15:57 | 60.36931 | 11.17890 | 3908 ft | 187 kts | 197° |
| 2026-05-06 15:57 | 60.35677 | 11.17187 | 3678 ft | 183 kts | 198° |
| 2026-05-06 15:58 | 60.34460 | 11.16487 | 3390 ft | 176 kts | 198° |
| 2026-05-06 15:58 | 60.33316 | 11.15845 | 3179 ft | 162 kts | 198° |
| 2026-05-06 15:58 | 60.32291 | 11.15266 | 2955 ft | 146 kts | 197° |
| 2026-05-06 15:58 | 60.31343 | 11.14766 | 2753 ft | 137 kts | 202° |
| 2026-05-06 15:59 | 60.30425 | 11.14196 | 2519 ft | 137 kts | 199° |
| 2026-05-06 15:59 | 60.29537 | 11.13721 | 2396 ft | 135 kts | 192° |
| 2026-05-06 15:59 | 60.28631 | 11.13272 | 2192 ft | 131 kts | 210° |
| 2026-05-06 15:59 | 60.27799 | 11.12508 | 2001 ft | 133 kts | 194° |
| 2026-05-06 16:00 | 60.26906 | 11.12160 | 1822 ft | 132 kts | 195° |
| 2026-05-06 16:00 | 60.26029 | 11.11686 | 1653 ft | 132 kts | 198° |
| 2026-05-06 16:00 | 60.25141 | 11.11181 | 1420 ft | 133 kts | 198° |
| 2026-05-06 16:00 | 60.24262 | 11.10687 | 1268 ft | 126 kts | 198° |
| 2026-05-06 16:01 | 60.23428 | 11.10217 | 1099 ft | 125 kts | 198° |
| 2026-05-06 16:01 | 60.22584 | 11.09738 | 934 ft | 126 kts | 197° |
| 2026-05-06 16:01 | 60.21756 | 11.09256 | 749 ft | 124 kts | 199° |
| 2026-05-06 16:01 | 60.21074 | 11.08855 | 689 ft | 106 kts | 196° |
| 2026-05-06 16:02 | 60.20517 | 11.08537 | 687 ft | 63 kts | 196° |
| 2026-05-06 16:02 | 60.20314 | 11.08446 | 687 ft | 12 kts | 169° |
| 2026-05-06 16:02 | 60.20247 | 11.08540 | 689 ft | 8 kts | 131° |
| 2026-05-06 16:02 | 60.20246 | 11.08544 | 689 ft | 0 kts | 121° |
| 2026-05-06 16:03 | 60.20241 | 11.08596 | 683 ft | 9 kts | 99° |
| 2026-05-06 16:03 | 60.20222 | 11.08738 | 687 ft | 6 kts | 133° |
| 2026-05-06 16:03 | 60.20212 | 11.08746 | 683 ft | 4 kts | 159° |
| 2026-05-06 16:03 | 60.20154 | 11.08724 | 685 ft | 12 kts | 196° |
| 2026-05-06 16:04 | 60.20057 | 11.08669 | 689 ft | 16 kts | 195° |
| 2026-05-06 16:04 | 60.19939 | 11.08600 | 688 ft | 20 kts | 196° |
| 2026-05-06 16:04 | 60.19863 | 11.08652 | 689 ft | 13 kts | 123° |
| 2026-05-06 16:04 | 60.19781 | 11.08678 | 689 ft | 12 kts | 195° |
| 2026-05-06 16:05 | 60.19685 | 11.08624 | 682 ft | 16 kts | 196° |
| 2026-05-06 16:05 | 60.19561 | 11.08553 | 686 ft | 20 kts | 196° |
| 2026-05-06 16:05 | 60.19427 | 11.08478 | 687 ft | 18 kts | 196° |
| 2026-05-06 16:05 | 60.19358 | 11.08437 | 687 ft | 9 kts | 196° |
| 2026-05-06 16:06 | 60.19290 | 11.08398 | 689 ft | 11 kts | 196° |
| 2026-05-06 16:06 | 60.19240 | 11.08376 | 689 ft | 2 kts | 172° |
| 2026-05-06 16:06 | 60.19217 | 11.08441 | 688 ft | 10 kts | 106° |
| 2026-05-06 16:06 | 60.19206 | 11.08518 | 685 ft | 2 kts | 106° |
| 2026-05-06 16:07 | 60.19205 | 11.08529 | 683 ft | 0 kts | 106° |
| 2026-05-06 16:16 | 60.19205 | 11.08528 | 689 ft | 0 kts | 106° |